Cazenovia, Illinois
Current Conditions -  °F | °C
As of 8:55 PM on Friday 19 Dec 2014 (Local Time) from KC75 Reporting Station
Overcast Overcast  
Wind Chill: 28°   Ceiling: 4500
Heat Index: 28°   Visibility: 10mi
Dew Point: 24°   Wind: 0mph
Humidity: 83%   Direction: NA
Pressure: 30.27"   Gusts: NA
Location:  40.8772°N, 89.3866°W
Report Text: KC75 200255Z AUTO 00000KT 10SM OVC045 M02/M05 A3027 RMK AO2 T10201046
Loading
Personal Weather Stations






























Interactive Weather Map New forecast layout! Learn more

10-Day Weather Forecast

Advertisements
Track Severe Weather on mobile